Terminal Aerodrome Forecast
Issued by NWS

Home | Current Version | Previous Version | Text Only | Print | Product List | Glossary On
Versions: 1 2 3 4 5 6 7 8 9 10 11 12 13 14 15 16 17 18 19
000
FTUS43 KMQT 300751 AAA
TAFCMX
TAF AMD
KCMX 300751Z 3008/3106 30013G23KT P6SM VCSH BKN040
      TEMPO 3008/3010 2SM -SHSN BKN008
     FM301200 31013KT P6SM BKN035
     FM302100 11005KT P6SM BKN120
     FM310300 11008KT P6SM VCSH OVC050=

USA.gov is the U.S. government's official web portal to all federal, state and local government web resources and services.